sensor_id;sensor_type;location;lat;lon;timestamp;temperature;humidity
5689;DHT22;2869;50.432;8.680;2023-08-12T00:01:00;19.90;99.90
5689;DHT22;2869;50.432;8.680;2023-08-12T00:03:27;19.90;99.90
5689;DHT22;2869;50.432;8.680;2023-08-12T00:05:54;20.00;99.90
5689;DHT22;2869;50.432;8.680;2023-08-12T00:08:21;19.90;99.90
5689;DHT22;2869;50.432;8.680;2023-08-12T00:10:48;19.90;99.90
5689;DHT22;2869;50.432;8.680;2023-08-12T00:13:15;19.90;99.90
5689;DHT22;2869;50.432;8.680;2023-08-12T00:15:43;19.90;99.90
5689;DHT22;2869;50.432;8.680;2023-08-12T00:18:11;19.90;99.90
5689;DHT22;2869;50.432;8.680;2023-08-12T00:20:37;19.80;99.90
5689;DHT22;2869;50.432;8.680;2023-08-12T00:23:05;19.70;99.90
5689;DHT22;2869;50.432;8.680;2023-08-12T00:25:31;19.70;99.90
5689;DHT22;2869;50.432;8.680;2023-08-12T00:27:58;19.70;99.90
5689;DHT22;2869;50.432;8.680;2023-08-12T00:30:24;19.70;99.90
5689;DHT22;2869;50.432;8.680;2023-08-12T00:32:51;19.80;99.90
5689;DHT22;2869;50.432;8.680;2023-08-12T00:35:19;19.80;99.90
5689;DHT22;2869;50.432;8.680;2023-08-12T00:37:46;19.80;99.90
5689;DHT22;2869;50.432;8.680;2023-08-12T00:40:13;19.80;99.90
5689;DHT22;2869;50.432;8.680;2023-08-12T00:42:39;19.80;99.90
5689;DHT22;2869;50.432;8.680;2023-08-12T00:45:09;19.70;99.90
5689;DHT22;2869;50.432;8.680;2023-08-12T00:47:38;19.70;99.90
5689;DHT22;2869;50.432;8.680;2023-08-12T00:50:05;19.70;99.90
5689;DHT22;2869;50.432;8.680;2023-08-12T00:52:34;19.70;99.90
5689;DHT22;2869;50.432;8.680;2023-08-12T00:55:01;19.70;99.90
5689;DHT22;2869;50.432;8.680;2023-08-12T00:57:28;19.70;99.90
5689;DHT22;2869;50.432;8.680;2023-08-12T00:59:56;19.70;99.90
5689;DHT22;2869;50.432;8.680;2023-08-12T01:02:22;19.70;99.90
5689;DHT22;2869;50.432;8.680;2023-08-12T01:04:49;19.70;99.90
5689;DHT22;2869;50.432;8.680;2023-08-12T01:07:16;19.60;99.90
5689;DHT22;2869;50.432;8.680;2023-08-12T01:09:44;19.60;99.90
5689;DHT22;2869;50.432;8.680;2023-08-12T01:12:15;19.50;99.90
5689;DHT22;2869;50.432;8.680;2023-08-12T01:14:48;19.50;99.90
5689;DHT22;2869;50.432;8.680;2023-08-12T01:17:16;19.50;99.90
5689;DHT22;2869;50.432;8.680;2023-08-12T01:19:43;19.50;99.90
5689;DHT22;2869;50.432;8.680;2023-08-12T01:22:11;19.50;99.90
5689;DHT22;2869;50.432;8.680;2023-08-12T01:24:41;19.60;99.90
5689;DHT22;2869;50.432;8.680;2023-08-12T01:27:10;19.60;99.90
5689;DHT22;2869;50.432;8.680;2023-08-12T01:29:39;19.60;99.90
5689;DHT22;2869;50.432;8.680;2023-08-12T01:32:11;19.60;99.90
5689;DHT22;2869;50.432;8.680;2023-08-12T01:34:43;19.60;99.90
5689;DHT22;2869;50.432;8.680;2023-08-12T01:37:16;19.60;99.90
5689;DHT22;2869;50.432;8.680;2023-08-12T01:39:45;19.60;99.90
5689;DHT22;2869;50.432;8.680;2023-08-12T01:42:15;19.60;99.90
5689;DHT22;2869;50.432;8.680;2023-08-12T01:44:43;19.60;99.90
5689;DHT22;2869;50.432;8.680;2023-08-12T01:47:09;19.60;99.90
5689;DHT22;2869;50.432;8.680;2023-08-12T01:49:37;19.60;99.90
5689;DHT22;2869;50.432;8.680;2023-08-12T01:52:04;19.60;99.90
5689;DHT22;2869;50.432;8.680;2023-08-12T01:54:30;19.70;99.90
5689;DHT22;2869;50.432;8.680;2023-08-12T01:57:01;19.70;99.90
5689;DHT22;2869;50.432;8.680;2023-08-12T01:59:30;19.70;99.90
5689;DHT22;2869;50.432;8.680;2023-08-12T02:01:57;19.70;99.90
5689;DHT22;2869;50.432;8.680;2023-08-12T02:04:24;19.70;99.90
5689;DHT22;2869;50.432;8.680;2023-08-12T02:06:51;19.70;99.90
5689;DHT22;2869;50.432;8.680;2023-08-12T02:09:18;19.60;99.90
5689;DHT22;2869;50.432;8.680;2023-08-12T02:11:44;19.60;99.90
5689;DHT22;2869;50.432;8.680;2023-08-12T02:14:12;19.60;99.90
5689;DHT22;2869;50.432;8.680;2023-08-12T02:16:39;19.70;99.90
5689;DHT22;2869;50.432;8.680;2023-08-12T02:19:05;19.70;99.90
5689;DHT22;2869;50.432;8.680;2023-08-12T02:21:32;19.70;99.90
5689;DHT22;2869;50.432;8.680;2023-08-12T02:23:59;19.70;99.90
5689;DHT22;2869;50.432;8.680;2023-08-12T02:26:25;19.60;99.90
5689;DHT22;2869;50.432;8.680;2023-08-12T02:28:52;19.60;99.90
5689;DHT22;2869;50.432;8.680;2023-08-12T02:31:20;19.60;99.90
5689;DHT22;2869;50.432;8.680;2023-08-12T02:33:47;19.60;99.90
5689;DHT22;2869;50.432;8.680;2023-08-12T02:36:14;19.60;99.90
5689;DHT22;2869;50.432;8.680;2023-08-12T02:38:41;19.50;99.90
5689;DHT22;2869;50.432;8.680;2023-08-12T02:41:08;19.60;99.90
5689;DHT22;2869;50.432;8.680;2023-08-12T02:43:34;19.50;99.90
5689;DHT22;2869;50.432;8.680;2023-08-12T02:46:01;19.50;99.90
5689;DHT22;2869;50.432;8.680;2023-08-12T02:48:29;19.50;99.90
5689;DHT22;2869;50.432;8.680;2023-08-12T02:50:56;19.50;99.90
5689;DHT22;2869;50.432;8.680;2023-08-12T02:53:22;19.50;99.90
5689;DHT22;2869;50.432;8.680;2023-08-12T02:55:49;19.50;99.90
5689;DHT22;2869;50.432;8.680;2023-08-12T02:58:16;19.50;99.90
5689;DHT22;2869;50.432;8.680;2023-08-12T03:00:42;19.50;99.90
5689;DHT22;2869;50.432;8.680;2023-08-12T03:03:10;19.40;99.90
5689;DHT22;2869;50.432;8.680;2023-08-12T03:05:38;19.40;99.90
5689;DHT22;2869;50.432;8.680;2023-08-12T03:08:05;19.40;99.90
5689;DHT22;2869;50.432;8.680;2023-08-12T03:10:33;19.40;99.90
5689;DHT22;2869;50.432;8.680;2023-08-12T03:13:00;19.40;99.90
5689;DHT22;2869;50.432;8.680;2023-08-12T03:15:26;19.30;99.90
5689;DHT22;2869;50.432;8.680;2023-08-12T03:17:53;19.30;99.90
5689;DHT22;2869;50.432;8.680;2023-08-12T03:20:20;19.30;99.90
5689;DHT22;2869;50.432;8.680;2023-08-12T03:22:48;19.30;99.90
5689;DHT22;2869;50.432;8.680;2023-08-12T03:25:15;19.30;99.90
5689;DHT22;2869;50.432;8.680;2023-08-12T03:27:42;19.30;99.90
5689;DHT22;2869;50.432;8.680;2023-08-12T03:30:09;19.30;99.90
5689;DHT22;2869;50.432;8.680;2023-08-12T03:32:36;19.20;99.90
5689;DHT22;2869;50.432;8.680;2023-08-12T03:35:03;19.20;99.90
5689;DHT22;2869;50.432;8.680;2023-08-12T03:37:30;19.20;99.90
5689;DHT22;2869;50.432;8.680;2023-08-12T03:39:58;19.10;99.90
5689;DHT22;2869;50.432;8.680;2023-08-12T03:42:25;19.10;99.90
5689;DHT22;2869;50.432;8.680;2023-08-12T03:44:51;19.20;99.90
5689;DHT22;2869;50.432;8.680;2023-08-12T03:47:18;19.20;99.90
5689;DHT22;2869;50.432;8.680;2023-08-12T03:49:49;19.20;99.90
5689;DHT22;2869;50.432;8.680;2023-08-12T03:52:15;19.20;99.90
5689;DHT22;2869;50.432;8.680;2023-08-12T03:54:42;19.20;99.90
5689;DHT22;2869;50.432;8.680;2023-08-12T03:57:11;19.20;99.90
5689;DHT22;2869;50.432;8.680;2023-08-12T03:59:38;19.20;99.90
5689;DHT22;2869;50.432;8.680;2023-08-12T04:02:04;19.10;99.90
5689;DHT22;2869;50.432;8.680;2023-08-12T04:04:31;19.20;99.90
5689;DHT22;2869;50.432;8.680;2023-08-12T04:06:58;19.20;99.90
5689;DHT22;2869;50.432;8.680;2023-08-12T04:09:24;19.20;99.90
5689;DHT22;2869;50.432;8.680;2023-08-12T04:11:51;19.20;99.90
5689;DHT22;2869;50.432;8.680;2023-08-12T04:14:19;19.20;99.90
5689;DHT22;2869;50.432;8.680;2023-08-12T04:16:46;19.20;99.90
5689;DHT22;2869;50.432;8.680;2023-08-12T04:19:12;19.20;99.90
5689;DHT22;2869;50.432;8.680;2023-08-12T04:21:39;19.20;99.90
5689;DHT22;2869;50.432;8.680;2023-08-12T04:24:07;19.20;99.90
5689;DHT22;2869;50.432;8.680;2023-08-12T04:26:33;19.20;99.90
5689;DHT22;2869;50.432;8.680;2023-08-12T04:29:00;19.10;99.90
5689;DHT22;2869;50.432;8.680;2023-08-12T04:31:28;19.10;99.90
5689;DHT22;2869;50.432;8.680;2023-08-12T04:33:55;19.10;99.90
5689;DHT22;2869;50.432;8.680;2023-08-12T04:36:22;19.10;99.90
5689;DHT22;2869;50.432;8.680;2023-08-12T04:38:48;19.10;99.90
5689;DHT22;2869;50.432;8.680;2023-08-12T04:41:15;19.10;99.90
5689;DHT22;2869;50.432;8.680;2023-08-12T04:43:42;19.10;99.90
5689;DHT22;2869;50.432;8.680;2023-08-12T04:46:08;19.10;99.90
5689;DHT22;2869;50.432;8.680;2023-08-12T04:48:36;19.10;99.90
5689;DHT22;2869;50.432;8.680;2023-08-12T04:51:03;19.10;99.90
5689;DHT22;2869;50.432;8.680;2023-08-12T04:53:31;19.10;99.90
5689;DHT22;2869;50.432;8.680;2023-08-12T04:55:57;19.00;99.90
5689;DHT22;2869;50.432;8.680;2023-08-12T04:58:24;19.00;99.90
5689;DHT22;2869;50.432;8.680;2023-08-12T05:00:51;18.90;99.90
5689;DHT22;2869;50.432;8.680;2023-08-12T05:03:18;18.90;99.90
5689;DHT22;2869;50.432;8.680;2023-08-12T05:05:50;18.80;99.90
5689;DHT22;2869;50.432;8.680;2023-08-12T05:08:17;18.80;99.90
5689;DHT22;2869;50.432;8.680;2023-08-12T05:10:46;18.80;99.90
5689;DHT22;2869;50.432;8.680;2023-08-12T05:13:13;18.90;99.90
5689;DHT22;2869;50.432;8.680;2023-08-12T05:15:39;18.90;99.90
5689;DHT22;2869;50.432;8.680;2023-08-12T05:18:06;18.90;99.90
5689;DHT22;2869;50.432;8.680;2023-08-12T05:20:33;18.90;99.90
5689;DHT22;2869;50.432;8.680;2023-08-12T05:23:01;19.00;99.90
5689;DHT22;2869;50.432;8.680;2023-08-12T05:25:28;19.00;99.90
5689;DHT22;2869;50.432;8.680;2023-08-12T05:27:54;19.00;99.90
5689;DHT22;2869;50.432;8.680;2023-08-12T05:30:21;19.00;99.90
5689;DHT22;2869;50.432;8.680;2023-08-12T05:32:48;19.10;99.90
5689;DHT22;2869;50.432;8.680;2023-08-12T05:35:15;19.20;99.90
5689;DHT22;2869;50.432;8.680;2023-08-12T05:37:41;19.20;99.90
5689;DHT22;2869;50.432;8.680;2023-08-12T05:40:11;19.20;99.90
5689;DHT22;2869;50.432;8.680;2023-08-12T05:42:37;19.20;99.90
5689;DHT22;2869;50.432;8.680;2023-08-12T05:45:05;19.20;99.90
5689;DHT22;2869;50.432;8.680;2023-08-12T05:47:32;19.20;99.90
5689;DHT22;2869;50.432;8.680;2023-08-12T05:49:58;19.30;99.90
5689;DHT22;2869;50.432;8.680;2023-08-12T05:52:25;19.30;99.90
5689;DHT22;2869;50.432;8.680;2023-08-12T05:54:52;19.30;99.90
5689;DHT22;2869;50.432;8.680;2023-08-12T05:57:20;19.40;99.90
5689;DHT22;2869;50.432;8.680;2023-08-12T05:59:46;19.40;99.90
5689;DHT22;2869;50.432;8.680;2023-08-12T06:02:13;19.50;99.90
5689;DHT22;2869;50.432;8.680;2023-08-12T06:04:40;19.50;99.90
5689;DHT22;2869;50.432;8.680;2023-08-12T06:07:06;19.60;99.90
5689;DHT22;2869;50.432;8.680;2023-08-12T06:09:33;19.60;99.90
5689;DHT22;2869;50.432;8.680;2023-08-12T06:12:00;19.70;99.90
5689;DHT22;2869;50.432;8.680;2023-08-12T06:14:28;19.80;99.90
5689;DHT22;2869;50.432;8.680;2023-08-12T06:16:54;19.90;99.90
5689;DHT22;2869;50.432;8.680;2023-08-12T06:19:21;20.00;99.90
5689;DHT22;2869;50.432;8.680;2023-08-12T06:21:48;19.90;99.90
5689;DHT22;2869;50.432;8.680;2023-08-12T06:24:14;19.90;99.90
5689;DHT22;2869;50.432;8.680;2023-08-12T06:26:41;19.90;99.90
5689;DHT22;2869;50.432;8.680;2023-08-12T06:29:08;20.00;99.90
5689;DHT22;2869;50.432;8.680;2023-08-12T06:31:35;20.30;99.90
5689;DHT22;2869;50.432;8.680;2023-08-12T06:34:02;20.80;99.90
5689;DHT22;2869;50.432;8.680;2023-08-12T06:36:29;21.10;99.90
5689;DHT22;2869;50.432;8.680;2023-08-12T06:38:55;21.30;99.90
5689;DHT22;2869;50.432;8.680;2023-08-12T06:41:22;21.30;99.90
5689;DHT22;2869;50.432;8.680;2023-08-12T06:43:49;21.30;99.90
5689;DHT22;2869;50.432;8.680;2023-08-12T06:46:16;21.30;99.90
5689;DHT22;2869;50.432;8.680;2023-08-12T06:48:44;21.40;99.90
5689;DHT22;2869;50.432;8.680;2023-08-12T06:51:10;21.80;99.90
5689;DHT22;2869;50.432;8.680;2023-08-12T06:53:37;22.20;99.90
5689;DHT22;2869;50.432;8.680;2023-08-12T06:56:04;22.50;99.90
5689;DHT22;2869;50.432;8.680;2023-08-12T06:58:30;22.70;99.90
5689;DHT22;2869;50.432;8.680;2023-08-12T07:00:57;22.80;99.90
5689;DHT22;2869;50.432;8.680;2023-08-12T07:03:24;22.80;99.90
5689;DHT22;2869;50.432;8.680;2023-08-12T07:05:53;22.50;99.90
5689;DHT22;2869;50.432;8.680;2023-08-12T07:08:19;22.20;99.90
5689;DHT22;2869;50.432;8.680;2023-08-12T07:10:46;22.00;99.90
5689;DHT22;2869;50.432;8.680;2023-08-12T07:13:13;21.70;99.90
5689;DHT22;2869;50.432;8.680;2023-08-12T07:15:39;21.60;99.90
5689;DHT22;2869;50.432;8.680;2023-08-12T07:18:06;21.40;99.90
5689;DHT22;2869;50.432;8.680;2023-08-12T07:20:33;21.20;99.90
5689;DHT22;2869;50.432;8.680;2023-08-12T07:23:01;21.30;99.90
5689;DHT22;2869;50.432;8.680;2023-08-12T07:25:27;21.60;99.90
5689;DHT22;2869;50.432;8.680;2023-08-12T07:27:54;21.90;99.90
5689;DHT22;2869;50.432;8.680;2023-08-12T07:30:20;22.00;99.90
5689;DHT22;2869;50.432;8.680;2023-08-12T07:32:47;22.20;99.90
5689;DHT22;2869;50.432;8.680;2023-08-12T07:35:14;22.40;99.90
5689;DHT22;2869;50.432;8.680;2023-08-12T07:37:41;22.60;99.90
5689;DHT22;2869;50.432;8.680;2023-08-12T07:40:10;22.90;99.90
5689;DHT22;2869;50.432;8.680;2023-08-12T07:42:37;22.90;99.90
5689;DHT22;2869;50.432;8.680;2023-08-12T07:45:05;23.20;99.90
5689;DHT22;2869;50.432;8.680;2023-08-12T07:47:32;23.10;99.90
5689;DHT22;2869;50.432;8.680;2023-08-12T07:49:59;22.90;99.90
5689;DHT22;2869;50.432;8.680;2023-08-12T07:52:25;22.70;99.90
5689;DHT22;2869;50.432;8.680;2023-08-12T07:54:52;22.50;99.90
5689;DHT22;2869;50.432;8.680;2023-08-12T07:57:20;22.40;99.90
5689;DHT22;2869;50.432;8.680;2023-08-12T07:59:49;22.30;99.90
5689;DHT22;2869;50.432;8.680;2023-08-12T08:02:16;22.30;99.90
5689;DHT22;2869;50.432;8.680;2023-08-12T08:04:42;22.20;99.90
5689;DHT22;2869;50.432;8.680;2023-08-12T08:07:11;22.10;99.90
5689;DHT22;2869;50.432;8.680;2023-08-12T08:09:38;22.00;99.90
5689;DHT22;2869;50.432;8.680;2023-08-12T08:12:05;21.80;99.90
5689;DHT22;2869;50.432;8.680;2023-08-12T08:14:34;21.80;99.90
5689;DHT22;2869;50.432;8.680;2023-08-12T08:17:00;21.80;99.90
5689;DHT22;2869;50.432;8.680;2023-08-12T08:19:27;21.80;99.90
5689;DHT22;2869;50.432;8.680;2023-08-12T08:21:54;21.90;99.90
5689;DHT22;2869;50.432;8.680;2023-08-12T08:24:20;22.00;99.90
5689;DHT22;2869;50.432;8.680;2023-08-12T08:26:47;22.10;99.90
5689;DHT22;2869;50.432;8.680;2023-08-12T08:29:13;22.00;99.90
5689;DHT22;2869;50.432;8.680;2023-08-12T08:31:41;22.00;99.90
5689;DHT22;2869;50.432;8.680;2023-08-12T08:34:08;22.00;99.90
5689;DHT22;2869;50.432;8.680;2023-08-12T08:36:36;21.90;99.90
5689;DHT22;2869;50.432;8.680;2023-08-12T08:39:03;21.80;99.90
5689;DHT22;2869;50.432;8.680;2023-08-12T08:41:31;21.70;99.90
5689;DHT22;2869;50.432;8.680;2023-08-12T08:44:02;21.60;99.90
5689;DHT22;2869;50.432;8.680;2023-08-12T08:46:29;21.50;99.90
5689;DHT22;2869;50.432;8.680;2023-08-12T08:48:59;21.40;99.90
5689;DHT22;2869;50.432;8.680;2023-08-12T08:51:27;21.50;99.90
5689;DHT22;2869;50.432;8.680;2023-08-12T08:53:56;21.60;99.90
5689;DHT22;2869;50.432;8.680;2023-08-12T08:56:23;21.70;99.90
5689;DHT22;2869;50.432;8.680;2023-08-12T08:58:50;21.90;99.90
5689;DHT22;2869;50.432;8.680;2023-08-12T09:01:19;22.00;99.90
5689;DHT22;2869;50.432;8.680;2023-08-12T09:03:47;22.10;99.90
5689;DHT22;2869;50.432;8.680;2023-08-12T09:06:17;22.40;99.90
5689;DHT22;2869;50.432;8.680;2023-08-12T09:08:46;22.50;99.90
5689;DHT22;2869;50.432;8.680;2023-08-12T09:11:17;22.50;99.90
5689;DHT22;2869;50.432;8.680;2023-08-12T09:13:44;22.40;99.90
5689;DHT22;2869;50.432;8.680;2023-08-12T09:16:11;22.30;99.90
5689;DHT22;2869;50.432;8.680;2023-08-12T09:18:38;22.40;99.90
5689;DHT22;2869;50.432;8.680;2023-08-12T09:21:04;22.50;99.90
5689;DHT22;2869;50.432;8.680;2023-08-12T09:23:35;22.40;99.90
5689;DHT22;2869;50.432;8.680;2023-08-12T09:26:12;22.40;99.90
5689;DHT22;2869;50.432;8.680;2023-08-12T09:28:39;22.40;99.90
5689;DHT22;2869;50.432;8.680;2023-08-12T09:31:06;22.40;99.90
5689;DHT22;2869;50.432;8.680;2023-08-12T09:33:32;22.40;99.90
5689;DHT22;2869;50.432;8.680;2023-08-12T09:35:59;22.50;99.90
5689;DHT22;2869;50.432;8.680;2023-08-12T09:38:26;22.50;99.90
5689;DHT22;2869;50.432;8.680;2023-08-12T09:40:54;22.60;99.90
5689;DHT22;2869;50.432;8.680;2023-08-12T09:43:23;22.50;99.90
5689;DHT22;2869;50.432;8.680;2023-08-12T09:45:50;22.50;99.90
5689;DHT22;2869;50.432;8.680;2023-08-12T09:48:17;22.50;99.90
5689;DHT22;2869;50.432;8.680;2023-08-12T09:50:44;22.50;99.90
5689;DHT22;2869;50.432;8.680;2023-08-12T09:53:11;22.50;99.90
5689;DHT22;2869;50.432;8.680;2023-08-12T09:55:38;22.60;99.90
5689;DHT22;2869;50.432;8.680;2023-08-12T09:58:09;22.60;99.90
5689;DHT22;2869;50.432;8.680;2023-08-12T10:00:36;22.70;99.90
5689;DHT22;2869;50.432;8.680;2023-08-12T10:03:04;22.80;99.90
5689;DHT22;2869;50.432;8.680;2023-08-12T10:05:33;23.10;99.90
5689;DHT22;2869;50.432;8.680;2023-08-12T10:07:59;23.20;99.90
5689;DHT22;2869;50.432;8.680;2023-08-12T10:10:29;23.40;99.90
5689;DHT22;2869;50.432;8.680;2023-08-12T10:12:57;23.50;99.90
5689;DHT22;2869;50.432;8.680;2023-08-12T10:15:26;23.70;99.90
5689;DHT22;2869;50.432;8.680;2023-08-12T10:17:52;24.00;99.90
5689;DHT22;2869;50.432;8.680;2023-08-12T10:20:21;24.10;99.90
5689;DHT22;2869;50.432;8.680;2023-08-12T10:22:48;24.10;99.90
5689;DHT22;2869;50.432;8.680;2023-08-12T10:25:15;24.20;99.90
5689;DHT22;2869;50.432;8.680;2023-08-12T10:27:44;24.20;99.90
5689;DHT22;2869;50.432;8.680;2023-08-12T10:30:13;24.20;99.90
5689;DHT22;2869;50.432;8.680;2023-08-12T10:32:42;24.20;99.90
5689;DHT22;2869;50.432;8.680;2023-08-12T10:35:09;24.20;99.90
5689;DHT22;2869;50.432;8.680;2023-08-12T10:37:36;24.10;99.90
5689;DHT22;2869;50.432;8.680;2023-08-12T10:40:04;24.10;99.90
5689;DHT22;2869;50.432;8.680;2023-08-12T10:42:42;24.00;99.90
5689;DHT22;2869;50.432;8.680;2023-08-12T10:45:11;23.80;99.90
5689;DHT22;2869;50.432;8.680;2023-08-12T10:47:40;23.80;99.90
5689;DHT22;2869;50.432;8.680;2023-08-12T10:50:17;23.70;99.90
5689;DHT22;2869;50.432;8.680;2023-08-12T10:52:44;23.60;99.90
5689;DHT22;2869;50.432;8.680;2023-08-12T10:55:18;23.50;99.90
5689;DHT22;2869;50.432;8.680;2023-08-12T10:57:45;23.40;99.90
5689;DHT22;2869;50.432;8.680;2023-08-12T11:00:14;23.30;99.90
5689;DHT22;2869;50.432;8.680;2023-08-12T11:02:44;23.20;99.90
5689;DHT22;2869;50.432;8.680;2023-08-12T11:05:11;23.10;99.90
5689;DHT22;2869;50.432;8.680;2023-08-12T11:07:40;23.00;99.90
5689;DHT22;2869;50.432;8.680;2023-08-12T11:10:12;22.90;99.90
5689;DHT22;2869;50.432;8.680;2023-08-12T11:12:40;22.80;99.90
5689;DHT22;2869;50.432;8.680;2023-08-12T11:15:07;22.80;99.90
5689;DHT22;2869;50.432;8.680;2023-08-12T11:17:36;22.80;99.90
5689;DHT22;2869;50.432;8.680;2023-08-12T11:20:06;22.80;99.90
5689;DHT22;2869;50.432;8.680;2023-08-12T11:22:36;22.70;99.90
5689;DHT22;2869;50.432;8.680;2023-08-12T11:25:04;22.60;99.90
5689;DHT22;2869;50.432;8.680;2023-08-12T11:27:38;22.50;99.90
5689;DHT22;2869;50.432;8.680;2023-08-12T11:30:06;22.50;99.90
5689;DHT22;2869;50.432;8.680;2023-08-12T11:32:33;22.50;99.90
5689;DHT22;2869;50.432;8.680;2023-08-12T11:35:00;22.40;99.90
5689;DHT22;2869;50.432;8.680;2023-08-12T11:37:28;22.40;99.90
5689;DHT22;2869;50.432;8.680;2023-08-12T11:39:54;22.40;99.90
5689;DHT22;2869;50.432;8.680;2023-08-12T11:42:21;22.40;99.90
5689;DHT22;2869;50.432;8.680;2023-08-12T11:44:48;22.70;99.90
5689;DHT22;2869;50.432;8.680;2023-08-12T11:47:15;23.40;99.90
5689;DHT22;2869;50.432;8.680;2023-08-12T11:49:41;23.90;99.90
5689;DHT22;2869;50.432;8.680;2023-08-12T11:52:09;24.30;99.90
5689;DHT22;2869;50.432;8.680;2023-08-12T11:54:38;24.90;99.90
5689;DHT22;2869;50.432;8.680;2023-08-12T11:57:05;25.30;99.90
5689;DHT22;2869;50.432;8.680;2023-08-12T11:59:31;25.60;99.90
5689;DHT22;2869;50.432;8.680;2023-08-12T12:02:01;25.70;99.90
5689;DHT22;2869;50.432;8.680;2023-08-12T12:04:30;25.30;99.90
5689;DHT22;2869;50.432;8.680;2023-08-12T12:06:57;25.00;99.90
5689;DHT22;2869;50.432;8.680;2023-08-12T12:09:25;24.90;99.90
5689;DHT22;2869;50.432;8.680;2023-08-12T12:11:53;24.70;99.90
5689;DHT22;2869;50.432;8.680;2023-08-12T12:14:21;24.70;99.90
5689;DHT22;2869;50.432;8.680;2023-08-12T12:16:48;24.60;99.90
5689;DHT22;2869;50.432;8.680;2023-08-12T12:19:18;24.40;99.90
5689;DHT22;2869;50.432;8.680;2023-08-12T12:21:46;24.40;99.90
5689;DHT22;2869;50.432;8.680;2023-08-12T12:24:13;24.30;99.90
5689;DHT22;2869;50.432;8.680;2023-08-12T12:26:40;24.40;99.90
5689;DHT22;2869;50.432;8.680;2023-08-12T12:29:08;24.40;99.90
5689;DHT22;2869;50.432;8.680;2023-08-12T12:31:37;24.30;99.90
5689;DHT22;2869;50.432;8.680;2023-08-12T12:34:04;24.30;99.90
5689;DHT22;2869;50.432;8.680;2023-08-12T12:36:31;24.20;99.90
5689;DHT22;2869;50.432;8.680;2023-08-12T12:38:58;24.20;99.90
5689;DHT22;2869;50.432;8.680;2023-08-12T12:41:24;24.10;99.90
5689;DHT22;2869;50.432;8.680;2023-08-12T12:43:51;24.10;99.90
5689;DHT22;2869;50.432;8.680;2023-08-12T12:46:19;24.10;99.90
5689;DHT22;2869;50.432;8.680;2023-08-12T12:48:46;24.10;99.90
5689;DHT22;2869;50.432;8.680;2023-08-12T12:51:13;24.10;99.90
5689;DHT22;2869;50.432;8.680;2023-08-12T12:53:40;24.00;99.90
5689;DHT22;2869;50.432;8.680;2023-08-12T12:56:07;24.00;99.90
5689;DHT22;2869;50.432;8.680;2023-08-12T12:58:35;24.00;99.90
5689;DHT22;2869;50.432;8.680;2023-08-12T13:01:03;24.20;99.90
5689;DHT22;2869;50.432;8.680;2023-08-12T13:03:31;24.40;99.90
5689;DHT22;2869;50.432;8.680;2023-08-12T13:05:58;24.70;99.90
5689;DHT22;2869;50.432;8.680;2023-08-12T13:08:25;25.10;99.90
5689;DHT22;2869;50.432;8.680;2023-08-12T13:10:51;25.60;99.90
5689;DHT22;2869;50.432;8.680;2023-08-12T13:13:18;26.00;99.90
5689;DHT22;2869;50.432;8.680;2023-08-12T13:15:45;26.00;99.90
5689;DHT22;2869;50.432;8.680;2023-08-12T13:18:12;26.10;99.90
5689;DHT22;2869;50.432;8.680;2023-08-12T13:20:40;26.10;99.90
5689;DHT22;2869;50.432;8.680;2023-08-12T13:23:07;26.00;99.90
5689;DHT22;2869;50.432;8.680;2023-08-12T13:25:34;26.10;99.90
5689;DHT22;2869;50.432;8.680;2023-08-12T13:28:01;26.20;99.90
5689;DHT22;2869;50.432;8.680;2023-08-12T13:30:29;26.20;99.90
5689;DHT22;2869;50.432;8.680;2023-08-12T13:32:56;26.30;99.90
5689;DHT22;2869;50.432;8.680;2023-08-12T13:35:22;26.80;99.90
5689;DHT22;2869;50.432;8.680;2023-08-12T13:37:50;27.20;99.90
5689;DHT22;2869;50.432;8.680;2023-08-12T13:40:17;27.40;99.90
5689;DHT22;2869;50.432;8.680;2023-08-12T13:42:44;27.80;99.90
5689;DHT22;2869;50.432;8.680;2023-08-12T13:45:12;27.90;99.90
5689;DHT22;2869;50.432;8.680;2023-08-12T13:47:39;28.00;99.90
5689;DHT22;2869;50.432;8.680;2023-08-12T13:50:07;28.00;99.90
5689;DHT22;2869;50.432;8.680;2023-08-12T13:52:33;27.80;99.90
5689;DHT22;2869;50.432;8.680;2023-08-12T13:55:01;27.70;99.90
5689;DHT22;2869;50.432;8.680;2023-08-12T13:57:29;27.50;99.90
5689;DHT22;2869;50.432;8.680;2023-08-12T13:59:55;27.40;99.90
5689;DHT22;2869;50.432;8.680;2023-08-12T14:02:22;27.50;99.90
5689;DHT22;2869;50.432;8.680;2023-08-12T14:04:48;27.70;99.90
5689;DHT22;2869;50.432;8.680;2023-08-12T14:07:15;28.20;99.90
5689;DHT22;2869;50.432;8.680;2023-08-12T14:09:45;28.50;99.90
5689;DHT22;2869;50.432;8.680;2023-08-12T14:12:13;28.50;99.90
5689;DHT22;2869;50.432;8.680;2023-08-12T14:14:40;28.50;99.90
5689;DHT22;2869;50.432;8.680;2023-08-12T14:17:06;28.20;99.90
5689;DHT22;2869;50.432;8.680;2023-08-12T14:19:33;28.00;99.90
5689;DHT22;2869;50.432;8.680;2023-08-12T14:22:00;27.90;99.90
5689;DHT22;2869;50.432;8.680;2023-08-12T14:24:26;27.60;99.90
5689;DHT22;2869;50.432;8.680;2023-08-12T14:26:53;27.30;99.90
5689;DHT22;2869;50.432;8.680;2023-08-12T14:29:21;27.00;99.90
5689;DHT22;2869;50.432;8.680;2023-08-12T14:31:48;26.90;99.90
5689;DHT22;2869;50.432;8.680;2023-08-12T14:34:14;27.00;99.90
5689;DHT22;2869;50.432;8.680;2023-08-12T14:36:41;27.00;99.90
5689;DHT22;2869;50.432;8.680;2023-08-12T14:39:07;27.00;99.90
5689;DHT22;2869;50.432;8.680;2023-08-12T14:41:34;26.90;99.90
5689;DHT22;2869;50.432;8.680;2023-08-12T14:44:01;26.90;99.90
5689;DHT22;2869;50.432;8.680;2023-08-12T14:46:29;26.80;99.90
5689;DHT22;2869;50.432;8.680;2023-08-12T14:48:55;26.80;99.90
5689;DHT22;2869;50.432;8.680;2023-08-12T14:51:22;26.80;99.90
5689;DHT22;2869;50.432;8.680;2023-08-12T14:53:49;26.80;99.90
5689;DHT22;2869;50.432;8.680;2023-08-12T14:56:15;26.90;99.90
5689;DHT22;2869;50.432;8.680;2023-08-12T14:58:42;27.20;99.90
5689;DHT22;2869;50.432;8.680;2023-08-12T15:01:10;27.30;99.90
5689;DHT22;2869;50.432;8.680;2023-08-12T15:03:38;27.20;99.90
5689;DHT22;2869;50.432;8.680;2023-08-12T15:06:04;27.00;99.90
5689;DHT22;2869;50.432;8.680;2023-08-12T15:08:31;26.80;99.90
5689;DHT22;2869;50.432;8.680;2023-08-12T15:10:58;26.70;99.90
5689;DHT22;2869;50.432;8.680;2023-08-12T15:13:25;26.50;99.90
5689;DHT22;2869;50.432;8.680;2023-08-12T15:15:52;26.30;99.90
5689;DHT22;2869;50.432;8.680;2023-08-12T15:18:19;26.30;99.90
5689;DHT22;2869;50.432;8.680;2023-08-12T15:20:47;26.20;99.90
5689;DHT22;2869;50.432;8.680;2023-08-12T15:23:13;26.20;99.90
5689;DHT22;2869;50.432;8.680;2023-08-12T15:25:43;26.00;99.90
5689;DHT22;2869;50.432;8.680;2023-08-12T15:28:10;25.90;99.90
5689;DHT22;2869;50.432;8.680;2023-08-12T15:30:37;25.70;99.90
5689;DHT22;2869;50.432;8.680;2023-08-12T15:33:04;25.60;99.90
5689;DHT22;2869;50.432;8.680;2023-08-12T15:35:31;25.50;99.90
5689;DHT22;2869;50.432;8.680;2023-08-12T15:37:59;25.40;99.90
5689;DHT22;2869;50.432;8.680;2023-08-12T15:40:26;25.30;99.90
5689;DHT22;2869;50.432;8.680;2023-08-12T15:42:53;25.30;99.90
5689;DHT22;2869;50.432;8.680;2023-08-12T15:45:19;25.40;99.90
5689;DHT22;2869;50.432;8.680;2023-08-12T15:47:46;25.40;99.90
5689;DHT22;2869;50.432;8.680;2023-08-12T15:50:13;25.50;99.90
5689;DHT22;2869;50.432;8.680;2023-08-12T15:52:39;25.50;99.90
5689;DHT22;2869;50.432;8.680;2023-08-12T15:55:08;25.80;99.90
5689;DHT22;2869;50.432;8.680;2023-08-12T15:57:35;26.00;99.90
5689;DHT22;2869;50.432;8.680;2023-08-12T16:00:01;26.20;99.90
5689;DHT22;2869;50.432;8.680;2023-08-12T16:02:30;26.20;99.90